createdAt,value
2018-05-09T00:01:22.964Z,12.10
2018-05-09T00:03:52.866Z,12.00
2018-05-09T00:06:21.411Z,11.90
2018-05-09T00:08:49.778Z,11.90
2018-05-09T00:11:18.204Z,11.70
2018-05-09T00:13:46.763Z,11.70
2018-05-09T00:16:15.960Z,11.60
2018-05-09T00:18:45.144Z,11.60
2018-05-09T00:21:13.664Z,11.50
2018-05-09T00:23:42.083Z,11.60
2018-05-09T00:26:10.477Z,11.50
2018-05-09T00:28:39.779Z,11.50
2018-05-09T00:31:08.235Z,11.50
2018-05-09T00:33:36.649Z,11.40
2018-05-09T00:36:05.075Z,11.30
2018-05-09T00:38:33.465Z,11.30
2018-05-09T00:41:01.906Z,11.30
2018-05-09T00:43:30.439Z,11.40
2018-05-09T00:45:58.884Z,11.40
2018-05-09T00:48:27.290Z,11.50
2018-05-09T00:50:55.862Z,11.50
2018-05-09T00:53:25.012Z,11.50
2018-05-09T00:55:54.343Z,11.50
2018-05-09T00:58:22.766Z,11.50
2018-05-09T01:00:51.886Z,11.60
2018-05-09T01:03:20.272Z,11.50
2018-05-09T01:05:49.619Z,11.60
2018-05-09T01:08:18.086Z,11.60
2018-05-09T01:10:46.477Z,11.60
2018-05-09T01:13:14.864Z,11.70
2018-05-09T01:15:43.247Z,11.70
2018-05-09T01:18:11.723Z,11.70
2018-05-09T01:20:40.288Z,11.70
2018-05-09T01:23:08.684Z,11.70
2018-05-09T01:25:37.238Z,11.70
2018-05-09T01:28:05.648Z,11.70
2018-05-09T01:30:34.955Z,11.70
2018-05-09T01:33:03.928Z,11.70
2018-05-09T01:35:32.332Z,11.60
2018-05-09T01:38:01.239Z,11.60
2018-05-09T01:40:29.812Z,11.50
2018-05-09T01:42:58.204Z,11.40
2018-05-09T01:45:26.579Z,11.30
2018-05-09T01:47:54.945Z,11.30
2018-05-09T01:50:23.368Z,11.20
2018-05-09T01:52:51.810Z,11.20
2018-05-09T01:55:20.332Z,11.30
2018-05-09T01:57:48.884Z,11.20
2018-05-09T02:00:17.479Z,11.20
2018-05-09T02:02:46.628Z,11.20
2018-05-09T02:05:14.998Z,11.10
2018-05-09T02:07:43.512Z,11.10
2018-05-09T02:10:12.035Z,11.10
2018-05-09T02:12:40.461Z,11.10
2018-05-09T02:15:08.830Z,11.00
2018-05-09T02:17:38.106Z,10.90
2018-05-09T02:20:06.525Z,10.90
2018-05-09T02:22:34.895Z,10.90
2018-05-09T02:25:04.215Z,10.90
2018-05-09T02:27:32.771Z,10.90
2018-05-09T02:30:01.907Z,10.90
2018-05-09T02:32:31.228Z,11.00
2018-05-09T02:34:59.611Z,10.90
2018-05-09T02:37:28.079Z,11.00
2018-05-09T02:39:57.379Z,11.10
2018-05-09T02:42:25.779Z,11.10
2018-05-09T02:44:54.166Z,11.10
2018-05-09T02:47:22.559Z,11.20
2018-05-09T02:49:51.184Z,11.20
2018-05-09T02:52:20.439Z,11.20
2018-05-09T02:54:48.987Z,11.20
2018-05-09T02:57:17.413Z,11.20
2018-05-09T02:59:46.671Z,11.40
2018-05-09T03:02:15.904Z,11.50
2018-05-09T03:04:45.163Z,11.50
2018-05-09T03:07:13.567Z,11.50
2018-05-09T03:09:41.967Z,11.50
2018-05-09T03:12:11.307Z,11.50
2018-05-09T03:14:39.694Z,11.50
2018-05-09T03:17:08.089Z,11.50
2018-05-09T03:19:36.647Z,11.60
2018-05-09T03:22:05.192Z,11.50
2018-05-09T03:24:33.587Z,11.50
2018-05-09T03:27:02.008Z,11.60
2018-05-09T03:29:30.546Z,11.60
2018-05-09T03:31:59.080Z,11.60
2018-05-09T03:34:28.408Z,11.60
2018-05-09T03:36:56.777Z,11.60
2018-05-09T03:39:25.239Z,11.60
2018-05-09T03:41:54.561Z,11.60
2018-05-09T03:44:22.930Z,11.60
2018-05-09T03:46:52.819Z,11.60
2018-05-09T03:49:21.200Z,11.70
2018-05-09T03:51:49.731Z,11.70
2018-05-09T03:54:18.123Z,11.70
2018-05-09T03:56:46.499Z,11.70
2018-05-09T03:59:14.863Z,11.80
2018-05-09T04:01:55.121Z,11.80
2018-05-09T04:04:35.443Z,11.80
2018-05-09T04:07:15.686Z,11.80
2018-05-09T04:09:51.663Z,11.90
2018-05-09T04:12:20.787Z,11.90
2018-05-09T04:14:49.161Z,11.90
2018-05-09T04:17:17.563Z,12.00
2018-05-09T04:19:45.978Z,12.10
2018-05-09T04:22:14.403Z,12.30
2018-05-09T04:24:42.819Z,12.40
2018-05-09T04:27:11.190Z,12.50
2018-05-09T04:29:39.577Z,12.70
2018-05-09T04:32:07.951Z,12.80
2018-05-09T04:34:36.319Z,13.00
2018-05-09T04:37:04.719Z,13.20
2018-05-09T04:39:33.121Z,13.30
2018-05-09T04:42:02.454Z,13.60
2018-05-09T04:44:30.859Z,13.60
2018-05-09T04:46:59.272Z,13.70
2018-05-09T04:49:27.712Z,13.90
2018-05-09T04:51:56.077Z,14.00
2018-05-09T04:54:24.457Z,14.20
2018-05-09T04:56:52.811Z,14.30
2018-05-09T04:59:21.226Z,14.30
2018-05-09T05:01:49.685Z,14.40
2018-05-09T05:04:18.987Z,14.80
2018-05-09T05:06:47.384Z,14.80
2018-05-09T05:09:15.792Z,15.00
2018-05-09T05:11:44.223Z,15.00
2018-05-09T05:14:12.727Z,15.20
2018-05-09T05:16:41.113Z,15.30
2018-05-09T05:19:09.499Z,15.50
2018-05-09T05:21:38.085Z,15.60
2018-05-09T05:24:06.452Z,15.70
2018-05-09T05:26:35.136Z,15.80
2018-05-09T05:29:04.270Z,16.30
2018-05-09T05:31:33.575Z,16.40
2018-05-09T05:34:02.899Z,16.60
2018-05-09T05:36:31.342Z,16.50
2018-05-09T05:41:36.031Z,16.90
2018-05-09T05:44:04.404Z,17.10
2018-05-09T05:46:32.779Z,17.30
2018-05-09T05:49:01.169Z,17.40
2018-05-09T05:51:29.741Z,17.60
2018-05-09T05:56:41.821Z,18.00
2018-05-09T05:59:10.187Z,18.20
2018-05-09T06:01:38.627Z,18.40
2018-05-09T06:04:07.181Z,18.60
2018-05-09T06:06:35.687Z,18.80
2018-05-09T06:09:04.093Z,19.10
2018-05-09T06:11:32.453Z,19.50
2018-05-09T06:14:00.795Z,19.80
2018-05-09T06:16:29.936Z,20.10
2018-05-09T06:18:59.092Z,20.40
2018-05-09T06:21:27.635Z,20.30
2018-05-09T06:23:56.148Z,20.60
2018-05-09T06:26:24.675Z,20.80
2018-05-09T06:28:53.040Z,21.20
2018-05-09T06:31:21.608Z,21.70
2018-05-09T06:33:50.796Z,23.10
2018-05-09T06:36:19.218Z,23.10
2018-05-09T06:38:47.631Z,23.80
2018-05-09T06:41:16.099Z,24.50
2018-05-09T06:43:44.633Z,25.20
2018-05-09T06:46:13.131Z,25.90
2018-05-09T06:48:41.647Z,26.50
2018-05-09T06:51:10.030Z,26.90
2018-05-09T06:53:38.395Z,27.30
2018-05-09T06:56:06.968Z,27.50
2018-05-09T06:58:35.345Z,27.50
2018-05-09T07:01:03.913Z,27.40
2018-05-09T07:03:33.076Z,26.70
2018-05-09T07:06:01.623Z,26.60
2018-05-09T07:08:30.020Z,26.40
2018-05-09T07:10:58.475Z,26.30
2018-05-09T07:13:26.889Z,26.20
2018-05-09T07:15:56.084Z,26.00
2018-05-09T07:18:24.459Z,26.00
2018-05-09T07:20:52.859Z,25.90
2018-05-09T07:23:21.250Z,25.80
2018-05-09T07:25:49.747Z,25.80
2018-05-09T07:28:18.108Z,26.00
2018-05-09T07:30:46.511Z,26.50
2018-05-09T07:33:14.892Z,27.40
2018-05-09T07:35:43.263Z,27.80
2018-05-09T07:38:11.644Z,28.40
2018-05-09T07:40:40.010Z,28.70
2018-05-09T07:43:08.411Z,29.00
2018-05-09T07:45:36.819Z,28.60
2018-05-09T07:48:05.196Z,28.00
2018-05-09T07:50:33.557Z,27.90
2018-05-09T07:53:01.955Z,28.20
2018-05-09T07:55:30.334Z,28.40
2018-05-09T07:57:58.705Z,28.60
2018-05-09T08:00:27.933Z,29.50
2018-05-09T08:02:56.344Z,29.40
2018-05-09T08:05:24.843Z,29.20
2018-05-09T08:07:53.987Z,28.90
2018-05-09T08:10:22.366Z,28.90
2018-05-09T08:12:50.863Z,28.70
2018-05-09T08:15:19.320Z,28.60
2018-05-09T08:17:47.692Z,28.30
2018-05-09T08:20:16.107Z,28.00
2018-05-09T08:22:44.483Z,27.50
2018-05-09T08:25:13.025Z,27.20
2018-05-09T08:27:41.433Z,27.20
2018-05-09T08:30:10.581Z,27.90
2018-05-09T08:32:38.963Z,27.80
2018-05-09T08:35:08.297Z,27.90
2018-05-09T08:37:37.454Z,27.90
2018-05-09T08:40:05.914Z,27.80
2018-05-09T08:42:34.331Z,27.90
2018-05-09T08:45:03.681Z,28.70
2018-05-09T08:47:32.038Z,28.60
2018-05-09T08:50:00.427Z,28.80
2018-05-09T08:52:28.845Z,28.80
2018-05-09T08:54:57.347Z,28.70
2018-05-09T08:57:25.742Z,29.00
2018-05-09T08:59:54.143Z,29.20
2018-05-09T09:02:22.524Z,29.00
2018-05-09T09:04:50.916Z,28.20
2018-05-09T09:07:19.292Z,28.00
2018-05-09T09:09:47.884Z,28.00
2018-05-09T09:12:16.338Z,27.90
2018-05-09T09:14:45.476Z,26.90
2018-05-09T09:17:13.873Z,26.80
2018-05-09T09:19:42.291Z,26.70
2018-05-09T09:22:10.843Z,26.30
2018-05-09T09:24:39.215Z,26.30
2018-05-09T09:27:07.675Z,26.10
2018-05-09T09:29:36.071Z,25.90
2018-05-09T09:32:05.377Z,25.60
2018-05-09T09:34:33.735Z,25.60
2018-05-09T09:37:02.918Z,25.60
2018-05-09T09:39:32.222Z,25.80
2018-05-09T09:42:01.532Z,25.80
2018-05-09T09:44:29.929Z,25.70
2018-05-09T09:46:59.065Z,25.70
2018-05-09T09:49:27.428Z,25.70
2018-05-09T09:51:55.969Z,25.60
2018-05-09T09:54:25.161Z,25.80
2018-05-09T09:56:53.643Z,25.80
2018-05-09T09:59:22.007Z,26.00
2018-05-09T10:01:50.563Z,25.90
2018-05-09T10:04:18.963Z,25.70
2018-05-09T10:06:47.374Z,25.40
2018-05-09T10:09:15.762Z,25.20
2018-05-09T10:11:44.312Z,25.10
2018-05-09T10:14:12.719Z,25.10
2018-05-09T10:16:41.113Z,25.10
2018-05-09T10:19:09.475Z,24.80
2018-05-09T10:21:37.909Z,24.50
2018-05-09T10:24:06.283Z,24.40
2018-05-09T10:26:34.834Z,24.30
2018-05-09T10:29:03.222Z,24.30
2018-05-09T10:31:31.683Z,24.40
2018-05-09T10:34:00.049Z,24.40
2018-05-09T10:36:29.241Z,24.40
2018-05-09T10:38:57.641Z,24.40
2018-05-09T10:41:26.064Z,24.40
2018-05-09T10:43:54.464Z,24.50
2018-05-09T10:46:23.003Z,24.60
2018-05-09T10:48:51.401Z,24.60
2018-05-09T10:51:19.861Z,24.70
2018-05-09T10:53:49.031Z,24.80
2018-05-09T10:56:17.420Z,24.80
2018-05-09T10:58:45.803Z,24.90
2018-05-09T11:01:14.211Z,24.90
2018-05-09T11:03:42.595Z,24.90
2018-05-09T11:06:11.175Z,24.80
2018-05-09T11:08:40.327Z,25.10
2018-05-09T11:11:09.685Z,25.20
2018-05-09T11:13:38.135Z,25.20
2018-05-09T11:16:07.271Z,25.40
2018-05-09T11:18:35.689Z,25.40
2018-05-09T11:21:04.127Z,25.20
2018-05-09T11:23:32.503Z,25.00
2018-05-09T11:26:01.057Z,24.90
2018-05-09T11:28:29.405Z,25.00
2018-05-09T11:30:57.778Z,24.80
2018-05-09T11:33:26.932Z,25.00
2018-05-09T11:35:56.267Z,25.10
2018-05-09T11:38:24.654Z,25.00
2018-05-09T11:40:53.035Z,25.10
2018-05-09T11:43:22.194Z,25.40
2018-05-09T11:45:50.588Z,25.40
2018-05-09T11:48:18.989Z,25.30
2018-05-09T11:50:47.461Z,25.10
2018-05-09T11:53:16.256Z,24.80
2018-05-09T11:55:45.880Z,24.80
2018-05-09T11:58:14.323Z,24.80
2018-05-09T12:00:42.758Z,24.70
2018-05-09T12:03:11.135Z,24.60
2018-05-09T12:05:39.750Z,24.60
2018-05-09T12:08:08.924Z,24.80
2018-05-09T12:10:37.320Z,24.80
2018-05-09T12:13:05.716Z,24.80
2018-05-09T12:15:34.219Z,24.90
2018-05-09T12:18:03.375Z,25.10
2018-05-09T12:20:31.822Z,25.10
2018-05-09T12:23:00.952Z,25.00
2018-05-09T12:25:30.283Z,24.90
2018-05-09T12:27:58.685Z,24.80
2018-05-09T12:30:27.047Z,24.70
2018-05-09T12:32:56.371Z,24.80
2018-05-09T12:35:24.898Z,24.90
2018-05-09T12:37:53.296Z,25.10
2018-05-09T12:40:21.712Z,25.10
2018-05-09T12:42:50.962Z,24.90
2018-05-09T12:45:19.503Z,24.90
2018-05-09T12:47:47.915Z,25.10
2018-05-09T12:50:17.058Z,25.00
2018-05-09T12:52:45.488Z,25.00
2018-05-09T12:55:15.560Z,24.70
2018-05-09T12:57:43.968Z,24.70
2018-05-09T13:00:12.439Z,24.60
2018-05-09T13:02:40.843Z,24.50
2018-05-09T13:05:09.235Z,24.60
2018-05-09T13:07:37.615Z,24.70
2018-05-09T13:10:06.035Z,24.90
2018-05-09T13:12:35.195Z,25.00
2018-05-09T13:15:03.621Z,24.90
2018-05-09T13:17:32.819Z,25.00
2018-05-09T13:20:01.243Z,25.00
2018-05-09T13:22:29.660Z,25.00
2018-05-09T13:24:58.099Z,24.90
2018-05-09T13:27:26.535Z,24.70
2018-05-09T13:29:55.702Z,24.70
2018-05-09T13:32:24.239Z,24.70
2018-05-09T13:34:53.543Z,24.70
2018-05-09T13:37:22.097Z,24.70
2018-05-09T13:39:50.604Z,24.60
2018-05-09T13:42:19.158Z,24.70
2018-05-09T13:44:48.355Z,24.50
2018-05-09T13:47:16.764Z,24.50
2018-05-09T13:49:45.147Z,24.30
2018-05-09T13:52:13.711Z,24.10
2018-05-09T13:54:42.298Z,23.90
2018-05-09T13:57:10.683Z,23.80
2018-05-09T13:59:39.110Z,23.80
2018-05-09T14:02:07.514Z,23.80
2018-05-09T14:04:35.947Z,23.90
2018-05-09T14:07:04.376Z,23.90
2018-05-09T14:09:34.148Z,23.90
2018-05-09T14:12:03.470Z,24.00
2018-05-09T14:14:32.388Z,24.00
2018-05-09T14:17:00.823Z,24.00
2018-05-09T14:19:29.215Z,23.80
2018-05-09T14:21:58.571Z,23.60
2018-05-09T14:24:26.984Z,23.60
2018-05-09T14:26:56.256Z,23.80
2018-05-09T14:29:24.821Z,23.70
2018-05-09T14:31:53.224Z,23.70
2018-05-09T14:34:21.825Z,23.80
2018-05-09T14:36:51.380Z,23.70
2018-05-09T14:39:20.556Z,23.70
2018-05-09T14:41:48.965Z,23.60
2018-05-09T14:44:17.394Z,23.60
2018-05-09T14:46:45.854Z,23.70
2018-05-09T14:49:14.263Z,23.80
2018-05-09T14:51:42.650Z,23.90
2018-05-09T14:54:11.974Z,24.00
2018-05-09T14:56:40.500Z,24.00
2018-05-09T14:59:09.201Z,23.90
2018-05-09T15:01:37.588Z,24.00
2018-05-09T15:04:06.111Z,23.90
2018-05-09T15:06:35.251Z,24.00
2018-05-09T15:09:26.811Z,24.00
2018-05-09T15:11:55.373Z,24.00
2018-05-09T15:14:24.606Z,23.60
2018-05-09T15:16:53.101Z,23.60
2018-05-09T15:19:22.276Z,23.40
2018-05-09T15:21:50.680Z,23.30
2018-05-09T15:24:19.227Z,23.40
2018-05-09T15:26:54.948Z,23.40
2018-05-09T15:29:23.371Z,23.60
2018-05-09T15:31:51.853Z,23.60
2018-05-09T15:34:20.392Z,23.40
2018-05-09T15:36:48.780Z,23.30
2018-05-09T15:39:17.162Z,23.30
2018-05-09T15:41:46.499Z,23.30
2018-05-09T15:44:14.879Z,23.20
2018-05-09T15:46:43.374Z,23.10
2018-05-09T15:49:11.797Z,23.00
2018-05-09T15:51:40.171Z,23.00
2018-05-09T15:54:08.558Z,23.00
2018-05-09T15:56:40.731Z,23.00
2018-05-09T15:59:09.256Z,22.90
2018-05-09T16:01:37.817Z,22.80
2018-05-09T16:04:06.279Z,22.70
2018-05-09T16:06:34.707Z,22.70
2018-05-09T16:09:03.117Z,22.60
2018-05-09T16:11:32.351Z,22.50
2018-05-09T16:14:00.783Z,22.40
2018-05-09T16:16:29.193Z,22.50
2018-05-09T16:19:01.047Z,22.50
2018-05-09T16:21:29.616Z,22.50
2018-05-09T16:23:58.012Z,22.50
2018-05-09T16:26:26.464Z,22.60
2018-05-09T16:28:54.849Z,22.60
2018-05-09T16:31:23.302Z,22.40
2018-05-09T16:33:51.742Z,22.30
2018-05-09T16:36:20.403Z,22.30
2018-05-09T16:38:48.826Z,22.30
2018-05-09T16:41:20.475Z,22.20
2018-05-09T16:43:54.533Z,22.10
2018-05-09T16:46:22.912Z,22.10
2018-05-09T16:48:51.351Z,22.10
2018-05-09T16:51:20.538Z,22.00
2018-05-09T16:53:49.262Z,22.00
2018-05-09T16:56:17.739Z,22.00
2018-05-09T16:58:46.145Z,21.90
2018-05-09T17:01:14.538Z,21.90
2018-05-09T17:03:42.955Z,21.90
2018-05-09T17:06:12.215Z,21.80
2018-05-09T17:08:40.643Z,21.80
2018-05-09T17:11:09.263Z,21.70
2018-05-09T17:13:37.676Z,21.70
2018-05-09T17:16:06.101Z,21.80
2018-05-09T17:18:34.497Z,21.70
2018-05-09T17:21:02.896Z,21.60
2018-05-09T17:23:37.427Z,21.70
2018-05-09T17:26:06.569Z,21.70
2018-05-09T17:28:34.955Z,21.60
2018-05-09T17:31:03.389Z,21.50
2018-05-09T17:33:32.544Z,21.40
2018-05-09T17:36:01.242Z,21.30
2018-05-09T17:38:30.455Z,21.10
2018-05-09T17:40:58.839Z,21.10
2018-05-09T17:43:28.022Z,20.80
2018-05-09T17:45:57.252Z,20.80
2018-05-09T17:48:27.285Z,20.70
2018-05-09T17:50:57.028Z,20.50
2018-05-09T17:53:26.171Z,20.50
2018-05-09T17:55:54.778Z,20.40
2018-05-09T17:58:23.178Z,20.40
2018-05-09T18:00:51.631Z,20.40
2018-05-09T18:03:19.992Z,20.20
2018-05-09T18:05:50.957Z,20.20
2018-05-09T18:08:23.848Z,20.20
2018-05-09T18:10:52.395Z,20.10
2018-05-09T18:13:20.764Z,20.00
2018-05-09T18:15:49.299Z,19.90
2018-05-09T18:18:17.720Z,19.80
2018-05-09T18:20:46.873Z,19.60
2018-05-09T18:23:15.443Z,19.60
2018-05-09T18:25:43.817Z,19.50
2018-05-09T18:28:12.216Z,19.50
2018-05-09T18:30:40.603Z,19.50
2018-05-09T18:33:08.994Z,19.40
2018-05-09T18:35:37.489Z,19.30
2018-05-09T18:38:06.701Z,19.20
2018-05-09T18:40:35.101Z,19.20
2018-05-09T18:43:03.485Z,19.10
2018-05-09T18:45:31.931Z,19.00
2018-05-09T18:48:01.121Z,18.70
2018-05-09T18:50:29.550Z,18.70
2018-05-09T18:52:57.923Z,18.60
2018-05-09T18:55:26.311Z,18.40
2018-05-09T18:57:55.523Z,18.30
2018-05-09T19:00:23.903Z,18.20
2018-05-09T19:02:52.268Z,18.10
2018-05-09T19:05:20.689Z,18.10
2018-05-09T19:07:49.053Z,17.90
2018-05-09T19:10:17.697Z,18.00
2018-05-09T19:12:46.103Z,18.00
2018-05-09T19:15:14.498Z,17.90
2018-05-09T19:17:42.908Z,17.80
2018-05-09T19:20:12.078Z,17.70
2018-05-09T19:22:40.589Z,17.70
2018-05-09T19:25:09.081Z,17.80
2018-05-09T19:27:38.385Z,17.80
2018-05-09T19:30:06.771Z,17.80
2018-05-09T19:32:35.227Z,17.90
2018-05-09T19:35:04.387Z,18.00
2018-05-09T19:37:32.799Z,18.00
2018-05-09T19:40:01.990Z,17.70
2018-05-09T19:42:31.261Z,17.60
2018-05-09T19:45:01.809Z,17.60
2018-05-09T19:47:30.293Z,17.50
2018-05-09T19:49:59.526Z,17.10
2018-05-09T19:52:27.922Z,17.10
2018-05-09T19:54:56.609Z,17.00
2018-05-09T19:57:26.127Z,16.90
2018-05-09T19:59:57.999Z,16.90
2018-05-09T20:02:26.561Z,16.80
2018-05-09T20:04:55.180Z,16.60
2018-05-09T20:07:23.605Z,16.50
2018-05-09T20:09:52.744Z,16.20
2018-05-09T20:12:21.257Z,16.10
2018-05-09T20:14:50.441Z,16.00
2018-05-09T20:17:19.014Z,16.00
2018-05-09T20:19:48.339Z,15.90
2018-05-09T20:22:16.888Z,15.90
2018-05-09T20:24:45.310Z,15.90
2018-05-09T20:27:13.755Z,15.80
2018-05-09T20:29:42.887Z,15.70
2018-05-09T20:32:23.059Z,15.70
2018-05-09T20:34:51.496Z,15.70
2018-05-09T20:37:20.035Z,15.70
2018-05-09T20:39:48.403Z,15.70
2018-05-09T20:42:16.868Z,15.70
2018-05-09T20:44:46.087Z,15.50
2018-05-09T20:47:15.250Z,15.50
2018-05-09T20:49:44.394Z,15.50
2018-05-09T20:52:13.366Z,15.40
2018-05-09T20:54:41.820Z,15.40
2018-05-09T20:57:10.206Z,15.20
2018-05-09T20:59:38.614Z,15.20
2018-05-09T21:02:07.100Z,15.10
2018-05-09T21:04:35.640Z,15.20
2018-05-09T21:07:04.211Z,15.20
2018-05-09T21:09:33.063Z,15.10
2018-05-09T21:12:09.351Z,15.10
2018-05-09T21:14:38.693Z,15.10
2018-05-09T21:17:07.083Z,15.10
2018-05-09T21:19:35.459Z,15.10
2018-05-09T21:22:03.811Z,15.20
2018-05-09T21:24:32.200Z,15.20
2018-05-09T21:27:00.746Z,15.20
2018-05-09T21:29:29.934Z,15.20
2018-05-09T21:31:58.327Z,15.20
2018-05-09T21:34:26.714Z,15.20
2018-05-09T21:36:55.359Z,15.20
2018-05-09T21:39:23.757Z,15.20
2018-05-09T21:41:52.143Z,15.20
2018-05-09T21:44:20.515Z,15.20
2018-05-09T21:46:48.956Z,15.10
2018-05-09T21:49:17.306Z,15.10
2018-05-09T21:51:45.665Z,15.00
2018-05-09T21:54:14.087Z,14.90
2018-05-09T21:56:42.508Z,14.80
2018-05-09T21:59:13.059Z,14.70
2018-05-09T22:01:41.599Z,14.70
2018-05-09T22:04:09.983Z,14.60
2018-05-09T22:06:38.533Z,14.50
2018-05-09T22:09:06.886Z,14.50
2018-05-09T22:11:35.480Z,14.30
2018-05-09T22:14:03.826Z,14.20
2018-05-09T22:16:32.247Z,14.10
2018-05-09T22:19:00.675Z,14.00
2018-05-09T22:21:29.068Z,13.80
2018-05-09T22:23:57.515Z,13.70
2018-05-09T22:26:26.820Z,13.50
2018-05-09T22:28:55.255Z,13.50
2018-05-09T22:31:23.631Z,13.40
2018-05-09T22:33:52.755Z,13.20
2018-05-09T22:36:21.128Z,13.20
2018-05-09T22:38:50.170Z,13.10
2018-05-09T22:41:19.576Z,13.00
2018-05-09T22:43:48.034Z,12.90
2018-05-09T22:46:16.422Z,12.70
2018-05-09T22:48:44.835Z,12.60
2018-05-09T22:51:13.201Z,12.50
2018-05-09T22:53:41.751Z,12.40
2018-05-09T22:56:10.912Z,12.10
2018-05-09T22:58:40.044Z,12.00
2018-05-09T23:01:09.440Z,12.00
2018-05-09T23:03:37.819Z,11.90
2018-05-09T23:06:06.967Z,11.90
2018-05-09T23:08:36.156Z,11.80
2018-05-09T23:11:04.538Z,11.70
2018-05-09T23:13:32.909Z,11.70
2018-05-09T23:16:01.439Z,11.60
2018-05-09T23:18:29.806Z,11.50
2018-05-09T23:20:59.042Z,11.40
2018-05-09T23:23:28.346Z,11.40
2018-05-09T23:25:57.671Z,11.30
2018-05-09T23:28:26.079Z,11.30
2018-05-09T23:30:54.469Z,11.20
2018-05-09T23:33:23.651Z,11.10
2018-05-09T23:35:52.196Z,11.10
2018-05-09T23:38:20.588Z,11.00
2018-05-09T23:40:49.142Z,11.00
2018-05-09T23:43:17.511Z,11.00
2018-05-09T23:45:47.576Z,11.00
2018-05-09T23:48:16.148Z,10.90
2018-05-09T23:50:45.363Z,11.00
2018-05-09T23:53:13.780Z,11.00
2018-05-09T23:55:42.357Z,11.00
2018-05-09T23:58:10.626Z,11.00
